Terminal Aerodrome Forecast
Issued by NWS Wilmington, NC

Home | Current Version | Previous Version | Text Only | Print | Product List | Glossary On
Versions: 1 2 3 4 5 6 7 8 9 10 11 12 13 14 15 16 17 18 19
832
FTUS42 KILM 211735
TAFMYR
TAF
KMYR 211735Z 2118/2218 17010KT 3SM BR VCSH OVC002
     FM221200 20008KT 2SM BR OVC004
     FM221500 20013KT 5SM SHRA BR OVC015=

USA.gov is the U.S. government's official web portal to all federal, state and local government web resources and services.